createdAt,value
2022-09-02T00:01:46.505Z,15.00
2022-09-02T00:04:20.195Z,13.47
2022-09-02T00:06:51.632Z,14.93
2022-09-02T00:09:27.443Z,16.90
2022-09-02T00:11:58.577Z,15.90
2022-09-02T00:14:32.326Z,16.43
2022-09-02T00:17:01.541Z,16.67
2022-09-02T00:19:32.508Z,16.73
2022-09-02T00:22:03.133Z,16.87
2022-09-02T00:24:33.488Z,19.20
2022-09-02T00:27:02.376Z,17.73
2022-09-02T00:29:30.957Z,18.27
2022-09-02T00:32:00.308Z,18.77
2022-09-02T00:34:33.022Z,20.07
2022-09-02T00:37:01.556Z,17.73
2022-09-02T00:39:30.039Z,19.17
2022-09-02T00:42:01.435Z,18.50
2022-09-02T00:44:29.987Z,18.03
2022-09-02T00:46:58.471Z,18.23
2022-09-02T00:49:30.095Z,18.00
2022-09-02T00:52:05.712Z,18.13
2022-09-02T00:54:41.058Z,17.87
2022-09-02T00:57:26.093Z,17.07
2022-09-02T01:00:03.938Z,15.03
2022-09-02T01:02:33.691Z,16.63
2022-09-02T01:05:03.995Z,16.00
2022-09-02T01:07:36.841Z,15.40
2022-09-02T01:10:09.847Z,15.03
2022-09-02T01:12:40.356Z,12.27
2022-09-02T01:15:12.256Z,11.40
2022-09-02T01:17:48.559Z,11.23
2022-09-02T01:20:22.782Z,10.17
2022-09-02T01:22:57.350Z,9.40
2022-09-02T01:25:30.508Z,8.50
2022-09-02T01:28:02.976Z,8.20
2022-09-02T01:30:42.679Z,8.57
2022-09-02T01:33:12.065Z,8.87
2022-09-02T01:35:40.830Z,8.53
2022-09-02T01:38:11.487Z,9.13
2022-09-02T01:40:40.587Z,9.60
2022-09-02T01:43:13.595Z,9.23
2022-09-02T01:45:46.002Z,9.10
2022-09-02T01:48:21.313Z,8.90
2022-09-02T01:50:54.722Z,7.97
2022-09-02T01:53:25.208Z,9.20
2022-09-02T01:55:53.831Z,8.70
2022-09-02T01:58:22.985Z,9.00
2022-09-02T02:00:51.730Z,8.83
2022-09-02T02:03:22.070Z,8.73
2022-09-02T02:05:50.667Z,9.03
2022-09-02T02:08:19.574Z,9.80
2022-09-02T02:10:50.092Z,9.17
2022-09-02T02:13:18.643Z,8.97
2022-09-02T02:15:47.302Z,9.20
2022-09-02T02:18:15.835Z,9.10
2022-09-02T02:20:44.841Z,8.87
2022-09-02T02:23:13.690Z,9.20
2022-09-02T02:25:42.407Z,8.50
2022-09-02T02:28:12.452Z,8.97
2022-09-02T02:30:40.942Z,9.23
2022-09-02T02:33:09.492Z,9.07
2022-09-02T02:35:38.099Z,8.00
2022-09-02T02:38:07.149Z,8.47
2022-09-02T02:40:36.022Z,8.73
2022-09-02T02:43:04.742Z,9.00
2022-09-02T02:45:34.693Z,9.57
2022-09-02T02:48:04.168Z,8.77
2022-09-02T02:50:32.857Z,8.47
2022-09-02T02:53:02.810Z,8.83
2022-09-02T02:55:31.368Z,8.50
2022-09-02T02:57:59.856Z,8.73
2022-09-02T03:00:39.164Z,9.47
2022-09-02T03:03:12.319Z,8.97
2022-09-02T03:05:41.651Z,8.73
2022-09-02T03:08:11.694Z,8.83
2022-09-02T03:10:43.231Z,8.57
2022-09-02T03:13:15.383Z,8.63
2022-09-02T03:15:45.394Z,9.23
2022-09-02T03:18:14.127Z,9.93
2022-09-02T03:20:43.878Z,8.97
2022-09-02T03:23:13.716Z,10.20
2022-09-02T03:25:45.511Z,10.07
2022-09-02T03:28:35.583Z,9.30
2022-09-02T03:31:05.895Z,9.70
2022-09-02T03:33:34.796Z,9.70
2022-09-02T03:36:03.587Z,9.30
2022-09-02T03:38:32.059Z,9.70
2022-09-02T03:41:00.551Z,9.40
2022-09-02T03:43:29.099Z,9.93
2022-09-02T03:45:57.631Z,9.73
2022-09-02T03:48:29.491Z,9.83
2022-09-02T03:50:58.276Z,10.07
2022-09-02T03:53:27.000Z,8.87
2022-09-02T03:55:56.046Z,9.17
2022-09-02T03:58:24.744Z,9.53
2022-09-02T04:00:54.065Z,9.17
2022-09-02T04:03:23.435Z,9.67
2022-09-02T04:05:53.753Z,9.57
2022-09-02T04:08:23.548Z,10.10
2022-09-02T04:10:52.237Z,9.50
2022-09-02T04:13:21.481Z,9.17
2022-09-02T04:15:50.179Z,8.80
2022-09-02T04:18:19.834Z,9.23
2022-09-02T04:20:48.356Z,9.77
2022-09-02T04:23:18.279Z,8.77
2022-09-02T04:25:46.844Z,9.13
2022-09-02T04:28:15.392Z,8.87
2022-09-02T04:30:44.812Z,7.97
2022-09-02T04:33:13.924Z,9.00
2022-09-02T04:35:48.851Z,8.17
2022-09-02T04:38:19.139Z,7.77
2022-09-02T04:40:49.113Z,7.83
2022-09-02T04:43:18.154Z,6.97
2022-09-02T04:45:47.779Z,7.67
2022-09-02T04:48:16.385Z,7.53
2022-09-02T04:50:45.330Z,6.83
2022-09-02T04:53:14.663Z,6.97
2022-09-02T04:55:44.698Z,7.10
2022-09-02T04:58:13.360Z,6.93
2022-09-02T05:00:43.062Z,7.00
2022-09-02T05:03:11.858Z,7.03
2022-09-02T05:05:40.644Z,6.70
2022-09-02T05:08:10.127Z,7.50
2022-09-02T05:10:41.490Z,7.17
2022-09-02T05:13:11.400Z,7.33
2022-09-02T05:15:42.036Z,7.43
2022-09-02T05:21:17.719Z,6.57
2022-09-02T05:23:46.376Z,7.20
2022-09-02T05:26:15.296Z,6.67
2022-09-02T05:28:45.534Z,7.10
2022-09-02T05:31:17.769Z,6.87
2022-09-02T05:33:48.375Z,6.13
2022-09-02T05:36:20.512Z,5.47
2022-09-02T05:38:50.847Z,5.67
2022-09-02T05:41:24.245Z,6.00
2022-09-02T05:43:56.523Z,6.50
2022-09-02T05:46:28.726Z,6.67
2022-09-02T05:49:07.332Z,6.53
2022-09-02T05:51:42.311Z,6.03
2022-09-02T05:54:13.163Z,7.10
2022-09-02T05:56:45.084Z,8.27
2022-09-02T05:59:15.709Z,7.60
2022-09-02T06:01:44.555Z,6.90
2022-09-02T06:04:13.041Z,9.20
2022-09-02T06:06:42.354Z,10.67
2022-09-02T06:09:15.367Z,12.60
2022-09-02T06:11:46.085Z,9.70
2022-09-02T06:14:19.646Z,7.70
2022-09-02T06:16:50.470Z,9.93
2022-09-02T06:19:20.418Z,9.97
2022-09-02T06:21:50.143Z,9.90
2022-09-02T06:24:18.780Z,9.10
2022-09-02T06:26:47.422Z,11.03
2022-09-02T06:29:17.827Z,9.27
2022-09-02T06:31:48.895Z,9.70
2022-09-02T06:34:20.102Z,12.40
2022-09-02T06:36:51.113Z,12.37
2022-09-02T06:39:25.933Z,10.57
2022-09-02T06:41:54.467Z,10.77
2022-09-02T06:44:24.609Z,10.93
2022-09-02T06:46:59.209Z,11.57
2022-09-02T06:49:29.566Z,9.90
2022-09-02T06:51:59.849Z,11.70
2022-09-02T06:54:54.940Z,13.00
2022-09-02T06:57:24.661Z,13.10
2022-09-02T07:00:06.369Z,10.40
2022-09-02T07:02:34.886Z,12.33
2022-09-02T07:05:15.098Z,11.93
2022-09-02T07:07:48.133Z,11.90
2022-09-02T07:10:17.021Z,12.97
2022-09-02T07:12:45.491Z,12.53
2022-09-02T07:15:15.659Z,11.93
2022-09-02T07:17:44.267Z,10.93
2022-09-02T07:20:14.238Z,12.00
2022-09-02T07:22:42.875Z,12.50
2022-09-02T07:25:11.648Z,11.97
2022-09-02T07:27:40.252Z,11.70
2022-09-02T07:30:11.060Z,10.87
2022-09-02T07:32:41.184Z,12.60
2022-09-02T07:35:10.942Z,14.63
2022-09-02T07:37:39.524Z,12.80
2022-09-02T07:40:11.602Z,15.10
2022-09-02T07:42:40.295Z,13.73
2022-09-02T07:45:10.269Z,13.20
2022-09-02T07:47:40.554Z,12.33
2022-09-02T07:50:19.679Z,13.00
2022-09-02T07:52:50.604Z,15.67
2022-09-02T07:55:19.173Z,11.70
2022-09-02T07:57:56.798Z,14.07
2022-09-02T08:00:27.678Z,14.47
2022-09-02T08:02:58.138Z,15.43
2022-09-02T08:05:27.377Z,14.87
2022-09-02T08:07:56.142Z,13.00
2022-09-02T08:10:27.260Z,14.70
2022-09-02T08:12:56.303Z,12.93
2022-09-02T08:15:28.745Z,12.57
2022-09-02T08:18:01.209Z,14.60
2022-09-02T08:20:30.584Z,14.23
2022-09-02T08:23:10.813Z,12.77
2022-09-02T08:25:42.519Z,13.00
2022-09-02T08:28:11.030Z,13.13
2022-09-02T08:30:40.159Z,10.63
2022-09-02T08:33:10.130Z,14.30
2022-09-02T08:35:39.274Z,11.63
2022-09-02T08:38:07.782Z,15.30
2022-09-02T08:40:41.851Z,14.03
2022-09-02T08:43:31.469Z,11.73
2022-09-02T08:46:05.554Z,15.63
2022-09-02T08:48:41.933Z,12.97
2022-09-02T08:51:16.638Z,15.23
2022-09-02T08:54:20.826Z,14.07
2022-09-02T08:56:51.812Z,12.97
2022-09-02T08:59:25.444Z,13.63
2022-09-02T09:02:16.749Z,16.90
2022-09-02T09:05:15.488Z,16.93
2022-09-02T09:08:04.851Z,14.13
2022-09-02T09:10:46.200Z,12.90
2022-09-02T09:14:01.607Z,11.53
2022-09-02T09:16:41.392Z,12.30
2022-09-02T09:19:15.730Z,10.87
2022-09-02T09:21:46.538Z,11.37
2022-09-02T09:24:33.063Z,11.47
2022-09-02T09:27:03.619Z,10.93
2022-09-02T09:29:36.334Z,14.77
2022-09-02T09:32:14.686Z,10.83
2022-09-02T09:35:07.165Z,11.60
2022-09-02T09:37:41.242Z,14.57
2022-09-02T09:43:16.411Z,12.97
2022-09-02T09:45:47.240Z,13.20
2022-09-02T09:48:31.626Z,11.50
2022-09-02T09:51:15.984Z,13.07
2022-09-02T09:53:46.737Z,13.20
2022-09-02T09:56:32.398Z,11.83
2022-09-02T09:59:10.624Z,13.27
2022-09-02T10:01:39.239Z,12.30
2022-09-02T10:04:42.467Z,13.90
2022-09-02T10:07:00.851Z,13.27
2022-09-02T10:09:37.471Z,10.67
2022-09-02T10:12:08.841Z,11.10
2022-09-02T10:14:41.013Z,11.03
2022-09-02T10:17:33.663Z,11.83
2022-09-02T10:20:11.401Z,11.87
2022-09-02T10:23:06.859Z,13.20
2022-09-02T10:25:52.838Z,10.30
2022-09-02T10:28:43.189Z,9.97
2022-09-02T10:31:21.366Z,9.23
2022-09-02T10:34:12.035Z,11.83
2022-09-02T10:37:06.494Z,12.60
2022-09-02T10:40:08.442Z,13.40
2022-09-02T10:42:49.880Z,11.97
2022-09-02T10:45:32.357Z,12.93
2022-09-02T10:48:22.807Z,11.03
2022-09-02T10:51:02.195Z,12.60
2022-09-02T10:53:53.455Z,12.63
2022-09-02T10:56:26.909Z,11.57
2022-09-02T10:59:05.798Z,12.73
2022-09-02T11:01:45.844Z,13.47
2022-09-02T11:04:25.197Z,13.57
2022-09-02T11:07:03.516Z,12.10
2022-09-02T11:09:37.922Z,11.40
2022-09-02T11:12:16.757Z,10.10
2022-09-02T11:15:03.811Z,12.27
2022-09-02T11:17:42.373Z,10.83
2022-09-02T11:20:20.074Z,10.80
2022-09-02T11:23:24.127Z,9.77
2022-09-02T11:26:01.413Z,10.53
2022-09-02T11:28:43.478Z,10.27
2022-09-02T11:31:23.029Z,10.13
2022-09-02T11:33:59.464Z,10.77
2022-09-02T11:36:33.254Z,10.97
2022-09-02T11:39:09.307Z,9.87
2022-09-02T11:41:58.333Z,10.07
2022-09-02T11:45:10.338Z,10.53
2022-09-02T11:48:25.187Z,10.00
2022-09-02T11:51:27.214Z,10.47
2022-09-02T11:54:00.237Z,11.10
2022-09-02T11:56:40.937Z,10.77
2022-09-02T11:59:20.418Z,10.73
2022-09-02T12:01:53.043Z,10.87
2022-09-02T12:04:58.732Z,10.80
2022-09-02T12:07:33.845Z,11.43
2022-09-02T12:10:06.137Z,10.17
2022-09-02T12:13:09.820Z,10.70
2022-09-02T12:15:40.681Z,10.70
2022-09-02T12:18:27.727Z,11.27
2022-09-02T12:21:18.754Z,11.23
2022-09-02T12:24:22.435Z,11.67
2022-09-02T12:27:27.615Z,11.30
2022-09-02T12:29:58.863Z,11.87
2022-09-02T12:33:13.447Z,12.47
2022-09-02T12:35:58.289Z,12.20
2022-09-02T12:38:34.397Z,11.50
2022-09-02T12:41:30.975Z,11.33
2022-09-02T12:44:27.392Z,12.00
2022-09-02T12:47:09.714Z,12.00
2022-09-02T12:49:50.680Z,11.17
2022-09-02T12:52:44.598Z,12.37
2022-09-02T12:55:23.697Z,13.33
2022-09-02T12:57:55.692Z,12.73
2022-09-02T13:00:36.202Z,12.87
2022-09-02T13:03:39.411Z,11.87
2022-09-02T13:06:22.328Z,12.07
2022-09-02T13:09:37.829Z,11.67
2022-09-02T13:12:57.211Z,12.47
2022-09-02T13:15:45.629Z,12.60
2022-09-02T13:19:08.518Z,12.30
2022-09-02T13:22:03.611Z,12.10
2022-09-02T13:25:07.375Z,12.30
2022-09-02T13:28:23.942Z,12.30
2022-09-02T13:31:20.672Z,11.60
2022-09-02T13:33:58.185Z,11.37
2022-09-02T13:36:32.736Z,10.80
2022-09-02T13:39:15.696Z,11.83
2022-09-02T13:41:44.689Z,11.77
2022-09-02T13:44:22.518Z,11.30
2022-09-02T13:46:54.624Z,13.43
2022-09-02T13:49:27.176Z,11.47
2022-09-02T13:51:57.747Z,13.67
2022-09-02T13:54:35.681Z,14.40
2022-09-02T13:57:09.648Z,14.90
2022-09-02T13:59:47.735Z,16.07
2022-09-02T14:02:27.201Z,16.10
2022-09-02T14:05:01.257Z,15.30
2022-09-02T14:07:36.524Z,17.27
2022-09-02T14:10:10.966Z,16.80
2022-09-02T14:12:41.765Z,17.73
2022-09-02T14:15:16.927Z,16.50
2022-09-02T14:17:45.501Z,17.17
2022-09-02T14:20:23.334Z,18.63
2022-09-02T14:22:57.390Z,17.23
2022-09-02T14:25:29.121Z,16.30
2022-09-02T14:28:02.139Z,16.57
2022-09-02T14:30:59.629Z,16.83
2022-09-02T14:33:41.443Z,17.13
2022-09-02T14:36:14.427Z,18.87
2022-09-02T14:38:55.534Z,17.97
2022-09-02T14:41:26.676Z,16.87
2022-09-02T14:43:59.555Z,15.93
2022-09-02T14:46:33.638Z,15.73
2022-09-02T14:49:06.635Z,16.93
2022-09-02T14:51:44.987Z,14.60
2022-09-02T14:54:34.144Z,15.60
2022-09-02T14:57:04.910Z,16.13
2022-09-02T14:59:33.416Z,15.33
2022-09-02T15:02:03.377Z,16.50
2022-09-02T15:04:35.637Z,13.80
2022-09-02T15:07:04.157Z,13.30
2022-09-02T15:09:33.874Z,13.10
2022-09-02T15:12:03.043Z,12.80
2022-09-02T15:14:31.796Z,12.17
2022-09-02T15:17:03.033Z,12.80
2022-09-02T15:19:33.681Z,14.07
2022-09-02T15:22:03.619Z,14.30
2022-09-02T15:24:32.203Z,13.57
2022-09-02T15:27:00.844Z,12.80
2022-09-02T15:29:32.450Z,13.77
2022-09-02T15:32:05.099Z,12.37
2022-09-02T15:34:34.571Z,13.33
2022-09-02T15:37:03.456Z,11.73
2022-09-02T15:39:32.089Z,10.57
2022-09-02T15:42:00.753Z,10.67
2022-09-02T15:44:31.237Z,8.63
2022-09-02T15:46:59.841Z,7.70
2022-09-02T15:49:30.731Z,6.50
2022-09-02T15:52:01.483Z,6.47
2022-09-02T15:54:31.634Z,6.30
2022-09-02T15:57:01.201Z,5.43
2022-09-02T15:59:29.735Z,5.20
2022-09-02T16:01:59.524Z,4.90
2022-09-02T16:04:30.076Z,5.27
2022-09-02T16:06:59.181Z,4.80
2022-09-02T16:09:27.818Z,5.07
2022-09-02T16:11:57.101Z,4.60
2022-09-02T16:14:26.878Z,4.20
2022-09-02T16:16:57.391Z,4.40
2022-09-02T16:19:30.377Z,3.77
2022-09-02T16:22:00.719Z,3.77
2022-09-02T16:24:29.385Z,3.60
2022-09-02T16:26:57.972Z,3.47
2022-09-02T16:29:28.295Z,3.80
2022-09-02T16:32:14.541Z,3.67
2022-09-02T16:34:46.834Z,3.87
2022-09-02T16:37:17.664Z,3.83
2022-09-02T16:39:46.240Z,4.10
2022-09-02T16:42:14.847Z,3.57
2022-09-02T16:44:43.323Z,4.47
2022-09-02T16:47:11.904Z,4.20
2022-09-02T16:49:42.788Z,4.90
2022-09-02T16:52:11.572Z,4.97
2022-09-02T16:54:41.957Z,4.90
2022-09-02T16:57:11.361Z,5.23
2022-09-02T16:59:39.801Z,5.33
2022-09-02T17:02:08.692Z,5.17
2022-09-02T17:04:37.562Z,5.70
2022-09-02T17:07:06.267Z,5.57
2022-09-02T17:09:34.783Z,6.10
2022-09-02T17:12:05.071Z,6.57
2022-09-02T17:14:33.642Z,6.13
2022-09-02T17:17:02.299Z,6.30
2022-09-02T17:19:32.672Z,6.40
2022-09-02T17:22:01.515Z,6.60
2022-09-02T17:24:30.962Z,6.93
2022-09-02T17:27:00.677Z,6.57
2022-09-02T17:32:20.785Z,6.77
2022-09-02T17:34:51.795Z,6.87
2022-09-02T17:37:22.111Z,7.30
2022-09-02T17:39:51.627Z,7.37
2022-09-02T17:42:21.471Z,7.40
2022-09-02T17:44:51.863Z,7.03
2022-09-02T17:47:24.178Z,7.80
2022-09-02T17:49:53.174Z,7.17
2022-09-02T17:52:24.343Z,7.43
2022-09-02T17:54:55.234Z,7.90
2022-09-02T17:57:42.701Z,7.80
2022-09-02T18:00:17.750Z,7.50
2022-09-02T18:03:16.997Z,8.20
2022-09-02T18:06:05.785Z,8.20
2022-09-02T18:08:45.488Z,8.30
2022-09-02T18:11:14.673Z,7.93
2022-09-02T18:13:56.262Z,8.20
2022-09-02T18:16:33.568Z,8.00
2022-09-02T18:19:19.711Z,7.50
2022-09-02T18:22:08.697Z,7.37
2022-09-02T18:24:59.164Z,7.63
2022-09-02T18:27:44.636Z,7.90
2022-09-02T18:30:28.009Z,7.60
2022-09-02T18:33:35.422Z,7.93
2022-09-02T18:36:21.764Z,7.53
2022-09-02T18:39:06.525Z,8.33
2022-09-02T18:41:51.929Z,7.87
2022-09-02T18:44:36.933Z,8.90
2022-09-02T18:47:11.331Z,8.20
2022-09-02T18:49:43.125Z,7.40
2022-09-02T18:52:12.926Z,7.93
2022-09-02T18:54:48.335Z,7.70
2022-09-02T18:57:17.541Z,8.27
2022-09-02T18:59:55.892Z,8.47
2022-09-02T19:02:33.826Z,7.50
2022-09-02T19:05:07.411Z,8.00
2022-09-02T19:07:55.507Z,7.17
2022-09-02T19:10:24.941Z,6.80
2022-09-02T19:12:54.402Z,7.23
2022-09-02T19:15:23.939Z,7.17
2022-09-02T19:17:52.595Z,6.40
2022-09-02T19:20:23.679Z,6.80
2022-09-02T19:22:57.253Z,7.30
2022-09-02T19:25:31.447Z,6.73
2022-09-02T19:28:06.026Z,6.47
2022-09-02T19:30:37.419Z,7.17
2022-09-02T19:33:13.736Z,7.20
2022-09-02T19:35:50.041Z,6.50
2022-09-02T19:38:18.547Z,6.93
2022-09-02T19:40:49.566Z,6.67
2022-09-02T19:43:18.473Z,6.70
2022-09-02T19:45:51.461Z,7.10
2022-09-02T19:48:20.980Z,6.83
2022-09-02T19:50:51.025Z,7.07
2022-09-02T19:53:25.729Z,6.83
2022-09-02T19:55:54.242Z,7.37
2022-09-02T19:58:23.011Z,7.10
2022-09-02T20:00:54.280Z,6.60
2022-09-02T20:03:22.980Z,7.40
2022-09-02T20:05:53.669Z,6.93
2022-09-02T20:08:24.487Z,7.43
2022-09-02T20:10:57.130Z,6.97
2022-09-02T20:13:26.374Z,6.90
2022-09-02T20:15:56.616Z,7.10
2022-09-02T20:18:27.803Z,7.43
2022-09-02T20:21:00.857Z,7.37
2022-09-02T20:23:33.676Z,7.33
2022-09-02T20:26:29.463Z,7.57
2022-09-02T20:29:28.209Z,7.10
2022-09-02T20:32:12.928Z,7.00
2022-09-02T20:35:02.616Z,6.23
2022-09-02T20:37:50.672Z,5.87
2022-09-02T20:40:35.006Z,6.30
2022-09-02T20:43:28.863Z,5.57
2022-09-02T20:46:05.108Z,6.27
2022-09-02T20:48:53.902Z,6.50
2022-09-02T20:51:30.234Z,5.90
2022-09-02T20:54:22.993Z,6.47
2022-09-02T20:57:06.610Z,6.63
2022-09-02T21:00:03.938Z,6.13
2022-09-02T21:02:39.060Z,5.43
2022-09-02T21:05:22.377Z,6.13
2022-09-02T21:08:03.692Z,5.67
2022-09-02T21:10:39.345Z,5.63
2022-09-02T21:13:16.802Z,5.67
2022-09-02T21:15:51.891Z,5.60
2022-09-02T21:18:36.082Z,5.30
2022-09-02T21:21:11.606Z,5.57
2022-09-02T21:23:49.325Z,5.30
2022-09-02T21:26:25.884Z,5.63
2022-09-02T21:29:04.578Z,5.63
2022-09-02T21:31:39.424Z,5.13
2022-09-02T21:34:20.859Z,5.73
2022-09-02T21:36:51.262Z,4.93
2022-09-02T21:39:20.135Z,5.93
2022-09-02T21:42:04.089Z,5.80
2022-09-02T21:44:48.002Z,5.77
2022-09-02T21:47:24.870Z,5.20
2022-09-02T21:50:11.442Z,5.30
2022-09-02T21:53:01.720Z,5.07
2022-09-02T21:56:00.380Z,5.00
2022-09-02T21:58:50.176Z,5.33
2022-09-02T22:01:44.586Z,5.40
2022-09-02T22:04:39.130Z,5.10
2022-09-02T22:07:21.198Z,6.03
2022-09-02T22:10:03.999Z,5.63
2022-09-02T22:12:41.180Z,6.37
2022-09-02T22:15:28.660Z,5.40
2022-09-02T22:18:11.991Z,6.00
2022-09-02T22:20:44.132Z,5.70
2022-09-02T22:23:25.757Z,5.70
2022-09-02T22:25:56.982Z,5.27
2022-09-02T22:28:36.851Z,6.03
2022-09-02T22:31:16.150Z,5.30
2022-09-02T22:33:55.856Z,5.43
2022-09-02T22:36:39.683Z,5.73
2022-09-02T22:39:08.337Z,6.20
2022-09-02T22:41:53.145Z,6.63
2022-09-02T22:44:54.124Z,6.90
2022-09-02T22:47:43.659Z,7.17
2022-09-02T22:50:38.491Z,7.13
2022-09-02T22:53:07.049Z,6.63
2022-09-02T22:55:59.543Z,6.53
2022-09-02T22:59:08.971Z,6.07
2022-09-02T23:01:53.711Z,5.50
2022-09-02T23:04:54.981Z,6.10
2022-09-02T23:07:25.196Z,6.27
2022-09-02T23:09:59.004Z,6.13
2022-09-02T23:12:41.643Z,6.53
2022-09-02T23:15:29.381Z,7.13
2022-09-02T23:18:07.445Z,6.87
2022-09-02T23:20:48.277Z,7.00
2022-09-02T23:23:39.017Z,6.80
2022-09-02T23:26:33.983Z,6.37
2022-09-02T23:29:18.246Z,6.43
2022-09-02T23:32:20.856Z,6.07
2022-09-02T23:35:21.545Z,5.87
2022-09-02T23:38:32.444Z,5.70
2022-09-02T23:41:10.281Z,5.80
2022-09-02T23:43:41.449Z,6.33
2022-09-02T23:46:27.618Z,5.53
2022-09-02T23:49:12.361Z,5.40
2022-09-02T23:51:56.899Z,5.20
2022-09-02T23:54:50.837Z,6.40
2022-09-02T23:57:45.992Z,5.50
